Time;durP1;ratioP1;P1;durP2;ratioP2;P2;SDS_P1;SDS_P2;PMS_P1;PMS_P2;Temp;Humidity;BMP_temperature;BMP_pressure;BME280_temperature;BME280_humidity;BME280_pressure;Samples;Min_cycle;Max_cycle;Signal;HPM_P1;HPM_P2
2021/04/05 00:02:17;;;;;;;11.98;3.30;;;;;;;10.07;69.50;100456.72;4424185;32;20418;-73
2021/04/05 00:04:42;;;;;;;10.50;3.37;;;;;;;9.97;70.64;100468.97;4422849;32;20077;-73
2021/04/05 00:07:10;;;;;;;13.52;3.47;;;;;;;9.94;72.09;100481.91;4422658;32;20041;-73
2021/04/05 00:09:39;;;;;;;15.05;4.05;;;;;;;9.96;72.81;100484.28;4424006;32;20457;-73
2021/04/05 00:12:09;;;;;;;9.02;3.28;;;;;;;9.92;73.10;100483.59;4424596;32;20033;-73
2021/04/05 00:14:38;;;;;;;14.85;3.42;;;;;;;9.92;73.15;100475.16;4424210;32;20064;-73
2021/04/05 00:17:05;;;;;;;11.85;3.20;;;;;;;9.98;72.84;100467.78;4423690;32;20067;-73
2021/04/05 00:19:32;;;;;;;12.63;3.55;;;;;;;9.98;72.65;100454.50;4423297;32;20078;-74
2021/04/05 00:21:59;;;;;;;15.48;3.67;;;;;;;10.04;71.91;100446.34;4424711;32;20077;-74
2021/04/05 00:24:25;;;;;;;15.50;3.22;;;;;;;10.02;71.74;100458.03;4422899;32;20046;-73
2021/04/05 00:26:51;;;;;;;13.60;3.20;;;;;;;10.01;71.90;100442.34;4420714;32;20124;-74
2021/04/05 00:29:16;;;;;;;14.43;3.20;;;;;;;10.03;72.00;100416.63;4421250;32;20477;-74
2021/04/05 00:31:42;;;;;;;14.18;2.80;;;;;;;9.94;72.85;100433.31;4408625;32;20125;-74
2021/04/05 00:34:08;;;;;;;9.85;2.83;;;;;;;9.91;72.84;100429.38;4426522;32;20067;-74
2021/04/05 00:36:33;;;;;;;12.23;2.67;;;;;;;9.82;72.85;100415.16;4410665;32;20093;-74
2021/04/05 00:38:59;;;;;;;10.25;3.00;;;;;;;9.83;73.71;100433.63;4419556;32;20026;-74
2021/04/05 00:41:26;;;;;;;10.10;2.30;;;;;;;9.76;73.67;100424.59;4425533;32;20104;-74
2021/04/05 00:43:52;;;;;;;15.43;2.83;;;;;;;9.71;73.67;100434.34;4424248;32;20331;-74
2021/04/05 00:46:21;;;;;;;8.43;2.40;;;;;;;9.62;75.04;100417.31;4421211;32;20037;-74
2021/04/05 00:48:47;;;;;;;6.20;1.92;;;;;;;9.58;74.68;100408.16;4422347;32;20065;-74
2021/04/05 00:51:15;;;;;;;7.87;2.05;;;;;;;9.55;75.18;100392.19;4420308;32;20072;-74
2021/04/05 00:53:43;;;;;;;7.03;1.95;;;;;;;9.51;76.05;100391.50;4424966;32;20097;-74
2021/04/05 00:56:11;;;;;;;10.57;2.10;;;;;;;9.56;76.30;100398.59;4420884;32;20072;-74
2021/04/05 00:58:37;;;;;;;7.75;1.55;;;;;;;9.55;76.27;100425.88;4424407;32;20080;-73
2021/04/05 01:01:07;;;;;;;12.80;1.50;;;;;;;9.40;74.39;100421.88;4420352;32;20057;-74
2021/04/05 01:03:36;;;;;;;12.85;1.65;;;;;;;9.28;74.34;100424.56;4423379;32;20049;-73
2021/04/05 01:06:08;;;;;;;11.93;1.60;;;;;;;9.01;73.31;100443.66;4424807;32;20095;-74
2021/04/05 01:08:34;;;;;;;19.73;2.15;;;;;;;8.66;73.60;100442.44;4423278;32;20046;-73
2021/04/05 01:11:00;;;;;;;18.42;2.53;;;;;;;8.43;71.99;100433.31;4420860;32;20534;-73
2021/04/05 01:13:25;;;;;;;15.00;3.10;;;;;;;8.31;71.76;100439.56;4422048;32;20054;-73
2021/04/05 01:15:51;;;;;;;17.65;3.30;;;;;;;8.25;71.75;100452.47;4424035;32;20398;-74
2021/04/05 01:18:17;;;;;;;18.75;3.00;;;;;;;8.13;70.66;100456.66;4424269;32;20141;-73
2021/04/05 01:20:44;;;;;;;23.02;3.72;;;;;;;8.09;68.26;100441.94;4423708;32;20485;-73
2021/04/05 01:23:11;;;;;;;20.95;3.12;;;;;;;8.08;66.80;100451.56;4421761;32;20622;-74
2021/04/05 01:25:38;;;;;;;23.35;3.50;;;;;;;8.06;65.63;100474.41;4420685;32;20100;-74
2021/04/05 01:28:07;;;;;;;18.08;3.58;;;;;;;8.08;64.18;100462.78;4421438;32;20307;-73
2021/04/05 01:35:50;;;;;;;22.85;3.85;;;;;;;8.73;62.76;100470.31;3985940;32;15022183;-73
2021/04/05 01:38:21;;;;;;;21.27;3.90;;;;;;;8.45;62.88;100473.69;4440278;32;20065;-73
2021/04/05 01:40:51;;;;;;;21.92;3.83;;;;;;;8.48;61.99;100478.44;4440918;32;20095;-73
2021/04/05 01:43:16;;;;;;;33.67;4.32;;;;;;;8.54;62.23;100489.94;4436855;32;20022;-73
2021/04/05 01:45:43;;;;;;;28.75;5.20;;;;;;;8.47;62.21;100474.03;4438974;32;20067;-73
2021/04/05 01:48:10;;;;;;;21.98;4.43;;;;;;;8.44;62.90;100458.06;4443621;32;20033;-73
2021/04/05 01:50:37;;;;;;;24.83;3.80;;;;;;;8.47;63.01;100474.03;4438645;32;20073;-73
2021/04/05 01:53:05;;;;;;;32.30;5.10;;;;;;;8.45;62.53;100470.91;4439420;32;20094;-73
2021/04/05 01:55:33;;;;;;;25.48;4.37;;;;;;;8.44;62.52;100469.28;4439491;32;20101;-73
2021/04/05 01:58:00;;;;;;;31.33;5.62;;;;;;;8.46;62.60;100457.66;4438803;32;20068;-74
2021/04/05 02:00:29;;;;;;;18.98;4.65;;;;;;;8.32;62.94;100450.34;4435532;32;20389;-73
2021/04/05 02:02:56;;;;;;;18.08;4.32;;;;;;;8.40;60.99;100462.22;4424156;32;20041;-73
2021/04/05 02:05:28;;;;;;;22.48;4.80;;;;;;;8.39;62.18;100460.59;4426615;32;20101;-74
2021/04/05 02:07:54;;;;;;;24.45;5.28;;;;;;;8.35;60.25;100443.87;4424929;32;20025;-73
2021/04/05 02:10:24;;;;;;;24.05;5.40;;;;;;;8.17;58.68;100469.38;4422866;32;20075;-73
2021/04/05 02:12:50;;;;;;;19.62;4.75;;;;;;;8.19;57.85;100466.16;4424392;32;20061;-73
2021/04/05 02:15:17;;;;;;;14.45;4.78;;;;;;;8.19;57.34;100485.78;4424607;32;20064;-73
2021/04/05 02:17:46;;;;;;;23.52;5.62;;;;;;;8.06;54.13;100487.63;4423315;32;20033;-73
2021/04/05 02:20:15;;;;;;;24.20;5.20;;;;;;;8.03;54.26;100508.88;4425187;32;20088;-73
2021/04/05 02:22:49;;;;;;;34.03;5.55;;;;;;;7.95;55.01;100504.63;4422405;32;20089;-73
2021/04/05 02:25:17;;;;;;;25.35;5.75;;;;;;;7.95;54.05;100506.66;4424736;32;20177;-73
2021/04/05 02:27:46;;;;;;;23.20;4.87;;;;;;;7.86;54.55;100498.75;4422465;32;20120;-73
2021/04/05 02:30:22;;;;;;;24.48;4.97;;;;;;;7.85;53.51;100507.59;4421529;32;20037;-73
2021/04/05 02:32:50;;;;;;;31.40;6.35;;;;;;;7.67;53.84;100488.28;4424263;32;20303;-74
2021/04/05 02:35:17;;;;;;;26.25;5.07;;;;;;;7.64;54.17;100497.53;4423170;32;20065;-73
2021/04/05 02:37:42;;;;;;;19.23;4.85;;;;;;;7.37;54.68;100510.75;4425418;32;20463;-74
2021/04/05 02:40:08;;;;;;;30.65;6.03;;;;;;;7.31;54.41;100523.66;4422724;32;20150;-73
2021/04/05 02:42:34;;;;;;;25.62;4.82;;;;;;;7.07;55.42;100490.41;4424018;32;20474;-73
2021/04/05 02:45:00;;;;;;;24.90;4.78;;;;;;;6.94;55.39;100495.00;4425342;32;20120;-74
2021/04/05 02:47:27;;;;;;;26.45;5.65;;;;;;;6.83;55.60;100491.53;4410323;32;20040;-73
2021/04/05 02:49:53;;;;;;;21.52;5.30;;;;;;;6.72;56.08;100485.31;4413838;32;20355;-73
2021/04/05 02:52:19;;;;;;;19.75;4.75;;;;;;;6.59;56.65;100479.44;4413671;32;20091;-73
2021/04/05 02:54:46;;;;;;;26.67;5.32;;;;;;;6.43;57.40;100484.84;4413807;32;20025;-73
2021/04/05 02:57:14;;;;;;;25.62;6.72;;;;;;;6.41;57.24;100464.13;4410583;32;20103;-73
2021/04/05 02:59:40;;;;;;;22.00;5.18;;;;;;;6.35;57.28;100474.16;4410195;32;20038;-74
2021/04/05 03:02:07;;;;;;;23.83;4.32;;;;;;;6.37;57.85;100480.91;4412750;32;20061;-73
2021/04/05 03:04:33;;;;;;;26.35;4.53;;;;;;;6.32;57.88;100491.75;4413172;32;20034;-73
2021/04/05 03:06:59;;;;;;;27.58;4.97;;;;;;;6.33;57.51;100496.12;4409959;32;20106;-74
2021/04/05 03:09:25;;;;;;;19.90;4.10;;;;;;;6.31;57.46;100504.13;4410833;32;20401;-73
2021/04/05 03:11:52;;;;;;;22.30;4.53;;;;;;;6.35;56.86;100513.28;4412830;32;20086;-73
2021/04/05 03:14:18;;;;;;;19.80;3.55;;;;;;;6.39;57.02;100519.63;4413358;32;20038;-74
2021/04/05 03:16:45;;;;;;;25.75;4.90;;;;;;;6.36;57.36;100526.03;4413439;32;20422;-73
2021/04/05 03:19:12;;;;;;;18.48;3.67;;;;;;;6.38;56.96;100529.22;4413092;32;20077;-73
2021/04/05 03:21:42;;;;;;;19.87;4.53;;;;;;;6.40;56.26;100533.19;4411496;32;20045;-73
2021/04/05 03:24:10;;;;;;;13.38;3.85;;;;;;;6.31;56.88;100535.66;4414289;32;20081;-73
2021/04/05 03:26:36;;;;;;;21.05;3.65;;;;;;;6.29;56.26;100538.06;4411921;32;20036;-73
2021/04/05 03:29:01;;;;;;;24.73;3.22;;;;;;;6.19;56.11;100521.44;4410580;32;20440;-73
2021/04/05 03:31:32;;;;;;;20.15;3.87;;;;;;;6.16;56.19;100545.41;4410766;32;20068;-73
2021/04/05 03:34:09;;;;;;;24.90;4.07;;;;;;;6.28;55.87;100552.47;4415517;32;20030;-73
2021/04/05 03:36:44;;;;;;;21.25;3.35;;;;;;;6.44;54.97;100544.34;4413904;32;20045;-73
2021/04/05 03:39:11;;;;;;;;;;;;;;;6.48;54.93;100550.69;4414846;32;20123;-74
2021/04/05 03:46:52;;;;;;;18.02;3.35;;;;;;;6.94;53.59;100590.09;3990408;32;15023131;-72
2021/04/05 03:49:26;;;;;;;24.20;3.20;;;;;;;6.94;53.59;100590.09;4440653;32;20094;-73
2021/04/05 03:52:06;;;;;;;13.55;2.95;;;;;;;6.55;54.52;100576.56;4439322;32;20017;-75
2021/04/05 03:54:42;;;;;;;18.85;3.03;;;;;;;6.60;53.79;100584.47;4440153;32;20048;-75
2021/04/05 03:57:09;;;;;;;17.17;4.43;;;;;;;6.63;53.70;100594.06;4438812;32;20057;-75
2021/04/05 03:59:41;;;;;;;17.52;3.00;;;;;;;6.57;53.05;100592.91;4438850;32;20080;-75
2021/04/05 04:02:15;;;;;;;21.80;3.17;;;;;;;6.67;52.53;100595.59;4429668;32;20025;-73
2021/04/05 04:04:53;;;;;;;18.48;2.70;;;;;;;6.69;52.84;100597.97;4424775;32;20106;-73
2021/04/05 04:07:29;;;;;;;19.80;2.85;;;;;;;6.72;52.56;100595.12;4425320;32;20029;-75
2021/04/05 04:09:56;;;;;;;14.35;3.40;;;;;;;6.73;52.19;100596.75;4421327;32;20018;-76
2021/04/05 04:12:28;;;;;;;14.85;2.28;;;;;;;6.72;51.88;100583.94;4425779;32;20102;-75
2021/04/05 04:14:55;;;;;;;16.00;2.90;;;;;;;6.78;52.48;100596.25;4424961;32;20073;-76
2021/04/05 04:17:22;;;;;;;13.02;2.45;;;;;;;6.78;52.66;100593.47;4424547;32;20025;-73
2021/04/05 04:19:49;;;;;;;21.55;3.17;;;;;;;6.80;52.64;100595.84;4424924;32;20094;-74
2021/04/05 04:22:15;;;;;;;12.25;2.35;;;;;;;6.86;52.71;100594.19;4425404;32;20061;-73
2021/04/05 04:24:41;;;;;;;11.02;2.97;;;;;;;6.83;52.61;100590.22;4423801;32;20033;-73
2021/04/05 04:27:07;;;;;;;25.10;3.37;;;;;;;6.86;52.48;100585.78;4422210;32;20022;-73
2021/04/05 04:29:33;;;;;;;19.35;2.78;;;;;;;6.91;52.72;100588.16;4426093;32;20279;-73
2021/04/05 04:31:59;;;;;;;24.92;3.50;;;;;;;6.86;53.15;100578.22;4423645;32;20442;-73
2021/04/05 04:34:25;;;;;;;19.42;3.67;;;;;;;6.70;53.55;100585.59;4422826;32;20077;-73
2021/04/05 04:36:51;;;;;;;18.62;3.37;;;;;;;6.65;53.67;100580.44;4419659;32;20064;-73
2021/04/05 04:39:18;;;;;;;25.98;3.33;;;;;;;6.64;53.93;100590.03;4421470;32;20041;-73
2021/04/05 04:41:46;;;;;;;18.75;3.35;;;;;;;6.67;54.00;100586.41;4422794;32;20503;-73
2021/04/05 04:44:13;;;;;;;16.60;4.00;;;;;;;6.65;54.56;100595.22;4426984;32;20018;-73
2021/04/05 04:46:40;;;;;;;21.42;3.30;;;;;;;6.64;54.27;100602.03;4424149;32;20202;-72
2021/04/05 04:49:10;;;;;;;15.35;2.70;;;;;;;6.76;54.45;100618.28;4422588;32;20034;-73
2021/04/05 04:51:37;;;;;;;8.45;1.15;;;;;;;6.81;54.49;100642.22;4423375;32;20328;-73
2021/04/05 04:54:04;;;;;;;14.90;1.33;;;;;;;6.74;53.87;100654.25;4423736;32;20083;-73
2021/04/05 04:56:31;;;;;;;8.38;0.82;;;;;;;6.72;52.85;100670.63;4419852;32;20060;-73
2021/04/05 04:59:01;;;;;;;10.43;1.00;;;;;;;6.50;53.59;100665.69;4412401;32;20030;-75
2021/04/05 05:01:29;;;;;;;6.70;1.00;;;;;;;6.44;53.28;100682.06;4414684;32;20078;-73
2021/04/05 05:03:58;;;;;;;7.35;1.08;;;;;;;6.39;52.58;100679.75;4413610;32;20058;-73
2021/04/05 05:06:26;;;;;;;5.75;0.88;;;;;;;6.34;52.80;100679.38;4414466;32;20361;-73
2021/04/05 05:08:53;;;;;;;5.90;1.15;;;;;;;6.29;52.26;100685.41;4415548;32;20057;-73
2021/04/05 05:11:19;;;;;;;4.53;1.12;;;;;;;6.09;52.28;100694.34;4410253;32;20039;-73
2021/04/05 05:13:45;;;;;;;4.50;0.70;;;;;;;6.06;52.11;100697.94;4413588;32;20059;-73
2021/04/05 05:16:11;;;;;;;9.27;1.10;;;;;;;5.75;52.33;100703.69;4410226;32;20097;-73
2021/04/05 05:18:38;;;;;;;10.50;1.52;;;;;;;5.74;51.98;100696.50;4414629;32;20022;-73
2021/04/05 05:21:13;;;;;;;3.80;0.80;;;;;;;5.73;52.13;100704.09;4414611;32;20069;-75
2021/04/05 05:23:42;;;;;;;3.97;1.20;;;;;;;5.45;52.86;100701.44;4413200;32;20037;-75
2021/04/05 05:26:10;;;;;;;7.03;1.02;;;;;;;5.26;53.33;100720.62;4412849;32;20091;-75
2021/04/05 05:28:37;;;;;;;16.50;1.70;;;;;;;5.18;53.55;100711.47;4414910;32;20354;-75
2021/04/05 05:31:03;;;;;;;11.45;1.42;;;;;;;5.09;54.03;100732.63;4414320;32;20103;-74
2021/04/05 05:33:29;;;;;;;11.23;1.17;;;;;;;5.03;54.60;100751.75;4411669;32;20038;-73
2021/04/05 05:35:57;;;;;;;4.28;1.20;;;;;;;5.08;55.49;100736.59;4413263;32;20026;-73
2021/04/05 05:38:24;;;;;;;9.88;1.80;;;;;;;4.81;57.12;100755.75;4414035;32;20042;-75
2021/04/05 05:40:50;;;;;;;6.45;1.77;;;;;;;5.00;57.33;100749.75;4414242;32;20078;-72
2021/04/05 05:48:51;;;;;;;7.62;1.55;;;;;;;5.07;58.18;100777.66;3986215;32;15025375;-74
2021/04/05 05:54:35;;;;;;;8.13;1.80;;;;;;;4.89;59.47;100787.22;3973204;32;15024143;-73
2021/04/05 05:57:18;;;;;;;5.03;2.00;;;;;;;4.89;59.47;100787.22;4426518;32;20041;-73
2021/04/05 06:02:48;;;;;;;8.05;2.10;;;;;;;4.63;60.06;100810.72;3974120;32;15022918;-73
2021/04/05 06:08:15;;;;;;;4.57;1.40;;;;;;;4.17;61.28;100814.62;4004173;31;15017569;-73
2021/04/05 06:19:37;;;;;;;5.40;1.50;;;;;;;4.46;62.37;100821.84;4009713;31;15019054;-73
2021/04/05 06:25:06;;;;;;;7.05;1.73;;;;;;;4.52;62.49;100825.81;3985770;32;15023422;-75
2021/04/05 06:27:40;;;;;;;7.93;1.65;;;;;;;4.52;62.49;100825.81;4435391;32;20152;-75
2021/04/05 06:36:14;;;;;;;4.87;2.10;;;;;;;5.01;61.65;100837.03;3984156;32;15022125;-74
2021/04/05 06:39:02;;;;;;;5.22;1.52;;;;;;;5.01;61.65;100837.03;4433005;32;20052;-75
2021/04/05 06:47:26;;;;;;;9.68;1.50;;;;;;;5.11;59.52;100823.06;4002358;31;15015891;-74
2021/04/05 06:50:31;;;;;;;6.32;1.35;;;;;;;5.11;59.52;100823.06;4461841;32;20395;-74
2021/04/05 06:55:47;;;;;;;6.75;2.17;;;;;;;4.94;58.10;100839.81;3985527;32;15022947;-74
2021/04/05 07:01:18;;;;;;;9.05;1.40;;;;;;;5.39;58.71;100859.31;3953782;32;15727438;-73
2021/04/05 07:04:23;;;;;;;7.80;2.00;;;;;;;5.39;58.71;100859.31;4437532;32;20068;-73
2021/04/05 07:07:10;;;;;;;6.45;1.05;;;;;;;5.22;57.86;100868.47;4433229;32;20077;-73
2021/04/05 07:12:51;;;;;;;5.43;1.30;;;;;;;5.45;52.76;100877.25;3981983;32;15026495;-74
2021/04/05 07:15:32;;;;;;;7.95;1.42;;;;;;;5.45;52.76;100877.25;4433688;32;20029;-74
2021/04/05 07:18:38;;;;;;;5.03;1.77;;;;;;;5.07;52.04;100875.28;4439485;32;20121;-73
2021/04/05 07:24:02;;;;;;;6.70;1.42;;;;;;;5.83;48.58;100870.03;3985257;32;15024496;-73
2021/04/05 07:26:53;;;;;;;7.62;1.27;;;;;;;5.83;48.58;100870.03;4437711;32;20112;-73
2021/04/05 07:29:27;;;;;;;4.07;1.35;;;;;;;5.24;50.21;100868.91;4439875;32;20053;-73
2021/04/05 07:42:38;;;;;;;2.65;0.90;;;;;;;6.38;43.11;100882.16;3984690;32;15023613;-74
2021/04/05 07:47:54;;;;;;;4.65;0.82;;;;;;;6.48;43.52;100881.34;3985936;32;15024682;-74
2021/04/05 07:55:32;;;;;;;10.20;0.88;;;;;;;6.62;41.40;100889.62;3983261;32;15052416;-74
2021/04/05 08:00:58;;;;;;;5.15;1.37;;;;;;;6.32;40.91;100886.59;3981588;32;15022923;-74
2021/04/05 08:06:09;;;;;;;4.28;1.05;;;;;;;5.90;41.55;100886.75;3984522;32;15025436;-73
2021/04/05 08:08:44;;;;;;;9.90;1.10;;;;;;;5.71;42.03;100907.50;4440620;32;20471;-73
2021/04/05 08:14:26;;;;;;;9.50;0.85;;;;;;;5.42;38.47;100930.25;3956906;32;15730560;-74
2021/04/05 08:33:09;;;;;;;5.28;0.60;;;;;;;6.26;33.97;100941.31;3985171;32;15025002;-73
2021/04/05 08:36:04;;;;;;;2.60;0.68;;;;;;;6.26;33.97;100941.31;4441033;32;20089;-73
2021/04/05 08:38:45;;;;;;;5.40;0.70;;;;;;;6.53;33.49;100953.59;4439973;32;20430;-73
2021/04/05 08:46:48;;;;;;;17.30;1.48;;;;;;;7.86;28.74;100940.66;3980790;32;15184179;-73
2021/04/05 08:49:19;;;;;;;12.65;0.68;;;;;;;7.86;28.74;100940.66;4442035;32;20091;-73
2021/04/05 08:51:50;;;;;;;8.93;0.82;;;;;;;7.59;28.62;100971.31;4441354;32;20053;-73
2021/04/05 08:54:23;;;;;;;11.63;0.50;;;;;;;7.25;27.88;100955.56;4437071;32;20095;-73
2021/04/05 08:56:56;;;;;;;12.82;1.23;;;;;;;7.15;27.02;100978.84;4439387;32;20029;-73
2021/04/05 09:04:43;;;;;;;6.43;0.70;;;;;;;8.79;26.02;100995.28;3987929;32;15074384;-73
2021/04/05 09:09:53;;;;;;;4.43;0.77;;;;;;;8.96;24.86;101000.91;3986837;32;15021856;-74
2021/04/05 09:12:20;;;;;;;5.00;0.57;;;;;;;8.96;24.86;101000.66;4439949;32;20029;-74
2021/04/05 09:15:20;;;;;;;2.70;0.50;;;;;;;8.45;24.76;100988.91;4440349;32;20014;-74
2021/04/05 09:18:20;;;;;;;11.45;0.65;;;;;;;8.82;24.29;100991.66;4441479;32;20450;-74
2021/04/05 09:32:05;;;;;;;9.75;1.10;;;;;;;9.53;24.28;101006.25;3984897;32;15021749;-74
2021/04/05 09:37:29;;;;;;;12.85;0.82;;;;;;;9.82;22.77;101019.44;3986660;31;15016700;-75
2021/04/05 09:43:10;;;;;;;5.97;0.70;;;;;;;10.78;21.77;101018.50;3957355;32;15723622;-73
2021/04/05 09:46:16;;;;;;;20.83;1.40;;;;;;;10.78;21.77;101018.50;4436182;32;20411;-73
2021/04/05 09:54:20;;;;;;;8.02;1.05;;;;;;;11.43;21.94;101018.25;3981726;32;15028628;-75
2021/04/05 09:56:53;;;;;;;1.92;0.50;;;;;;;11.43;21.94;101018.25;4439566;32;20118;-75
2021/04/05 09:59:22;;;;;;;4.20;0.50;;;;;;;10.50;20.43;101036.75;4438053;32;20026;-75
2021/04/05 10:01:52;;;;;;;2.97;0.45;;;;;;;10.05;19.66;101047.56;4425506;32;20112;-75
2021/04/05 10:04:24;;;;;;;1.23;0.35;;;;;;;9.87;19.65;101037.81;4420235;32;20089;-75
2021/04/05 10:06:53;;;;;;;2.50;0.52;;;;;;;9.93;20.31;101041.75;4421380;32;20069;-75
2021/04/05 10:09:25;;;;;;;2.80;0.60;;;;;;;9.63;20.70;101048.25;4417578;32;20064;-75
2021/04/05 10:11:52;;;;;;;9.02;0.52;;;;;;;9.82;20.11;101039.09;4417889;32;20138;-75
2021/04/05 10:14:21;;;;;;;6.55;0.65;;;;;;;10.01;20.08;101054.47;4421436;32;20022;-75
2021/04/05 10:16:53;;;;;;;8.32;0.60;;;;;;;10.22;19.55;101042.91;4422769;32;20034;-75
2021/04/05 10:19:31;;;;;;;4.68;0.40;;;;;;;10.25;18.78;101044.03;4416702;32;20339;-75
2021/04/05 10:22:02;;;;;;;1.95;0.40;;;;;;;10.52;19.03;101059.59;4420175;32;20072;-75
2021/04/05 10:24:31;;;;;;;4.37;0.47;;;;;;;10.49;19.15;101059.69;4421860;32;20049;-75
2021/04/05 10:27:00;;;;;;;5.80;0.60;;;;;;;10.70;19.22;101056.44;4418674;32;20109;-75
2021/04/05 10:29:33;;;;;;;5.85;0.40;;;;;;;10.94;19.63;101066.41;4417560;32;20107;-75
2021/04/05 10:32:02;;;;;;;1.87;0.50;;;;;;;11.14;19.53;101065.19;4417875;32;20029;-75
2021/04/05 10:34:29;;;;;;;3.28;0.70;;;;;;;11.22;19.42;101057.37;4422205;32;20405;-75
2021/04/05 10:37:02;;;;;;;5.50;0.57;;;;;;;11.49;20.07;101060.81;4420074;32;20086;-75
2021/04/05 10:39:28;;;;;;;2.55;0.55;;;;;;;11.71;20.12;101053.47;4419588;32;20061;-75
2021/04/05 10:41:58;;;;;;;3.75;0.57;;;;;;;11.89;20.07;101056.66;4417308;32;20103;-75
2021/04/05 10:44:28;;;;;;;2.28;0.60;;;;;;;12.39;19.60;101067.50;4417775;32;20100;-75
2021/04/05 10:46:59;;;;;;;2.33;0.55;;;;;;;12.39;19.05;101081.59;4420695;32;20062;-75
2021/04/05 10:49:29;;;;;;;1.37;0.50;;;;;;;12.09;19.04;101075.09;4421328;32;20037;-75
2021/04/05 10:52:09;;;;;;;11.20;1.10;;;;;;;11.75;19.97;101077.53;4418106;32;20093;-75
2021/04/05 10:54:39;;;;;;;2.97;0.37;;;;;;;12.15;20.10;101063.28;4421022;32;20391;-75
2021/04/05 10:57:10;;;;;;;4.87;0.75;;;;;;;12.44;18.80;101064.13;4417366;32;20465;-75
2021/04/05 10:59:46;;;;;;;3.60;0.77;;;;;;;12.65;19.01;101075.66;4416567;32;20099;-76
2021/04/05 11:02:29;;;;;;;3.90;0.65;;;;;;;13.11;18.75;101069.53;4421261;32;20061;-76
2021/04/05 11:05:00;;;;;;;0.93;0.40;;;;;;;13.51;18.39;101082.06;4411509;32;20470;-73
2021/04/05 11:07:30;;;;;;;3.17;0.43;;;;;;;14.30;18.24;101069.81;4409647;32;20062;-75
2021/04/05 11:10:00;;;;;;;3.03;0.40;;;;;;;14.38;17.27;101068.31;4409031;32;20088;-75
2021/04/05 11:12:38;;;;;;;5.12;0.70;;;;;;;14.99;17.51;101074.22;4406928;32;21123;-75
2021/04/05 11:15:08;;;;;;;4.95;0.95;;;;;;;14.94;16.90;101074.81;4411296;32;20065;-75
2021/04/05 11:17:43;;;;;;;3.95;0.50;;;;;;;15.01;17.24;101075.34;4406426;32;20037;-76
2021/04/05 11:20:10;;;;;;;2.87;0.40;;;;;;;14.60;16.88;101077.69;4415057;32;20077;-76
2021/04/05 11:22:38;;;;;;;5.97;1.00;;;;;;;14.51;17.36;101066.25;4407236;32;20081;-76
2021/04/05 11:25:10;;;;;;;4.32;0.90;;;;;;;15.11;17.27;101071.31;4404746;32;20078;-75
2021/04/05 11:27:41;;;;;;;6.50;0.60;;;;;;;15.00;17.84;101072.97;4406143;32;20100;-75
2021/04/05 11:30:09;;;;;;;2.50;0.62;;;;;;;14.46;17.26;101092.31;4409297;32;20517;-75
2021/04/05 11:32:38;;;;;;;3.25;0.80;;;;;;;13.92;17.60;101095.28;4405908;32;20074;-75
2021/04/05 11:35:07;;;;;;;1.67;0.60;;;;;;;14.09;17.75;101085.44;4406671;32;20599;-75
2021/04/05 11:37:35;;;;;;;4.30;0.50;;;;;;;14.27;17.75;101079.22;4409788;32;20297;-75
2021/04/05 11:40:11;;;;;;;1.67;0.40;;;;;;;13.77;17.78;101085.66;4404560;32;20066;-75
2021/04/05 11:42:44;;;;;;;2.55;0.40;;;;;;;13.76;17.88;101086.91;4409561;32;20460;-76
2021/04/05 11:45:14;;;;;;;2.25;0.82;;;;;;;14.18;17.92;101094.03;4409440;32;20053;-75
2021/04/05 11:47:46;;;;;;;10.45;0.98;;;;;;;13.98;18.25;101087.81;4409071;32;20098;-75
2021/04/05 11:50:15;;;;;;;5.35;1.25;;;;;;;13.01;19.45;101089.59;4409598;32;20424;-75
2021/04/05 11:55:22;;;;;;;3.28;0.80;;;;;;;13.15;18.98;101086.34;3999300;31;15019929;-76
2021/04/05 12:00:36;;;;;;;2.17;0.60;;;;;;;14.11;18.49;101107.63;3984111;32;15022131;-73
2021/04/05 12:08:55;;;;;;;2.63;0.60;;;;;;;16.04;17.18;101120.44;4001803;31;15015732;-74
2021/04/05 12:11:25;;;;;;;1.20;0.55;;;;;;;16.04;17.18;101120.44;4465754;32;20085;-73
2021/04/05 12:13:55;;;;;;;1.45;0.50;;;;;;;15.67;16.54;101111.72;4466320;32;20025;-73
2021/04/05 12:16:24;;;;;;;2.87;1.20;;;;;;;15.10;17.25;101103.75;4465819;32;20040;-74
2021/04/05 12:18:54;;;;;;;2.55;0.60;;;;;;;14.98;17.28;101112.31;4467115;32;20033;-76
2021/04/05 12:21:31;;;;;;;2.17;0.57;;;;;;;15.27;17.13;101107.97;4464518;32;20060;-76
2021/04/05 12:24:00;;;;;;;5.00;0.60;;;;;;;15.04;17.54;101108.41;4463216;32;20063;-76
2021/04/05 12:26:30;;;;;;;2.15;0.40;;;;;;;15.62;16.83;101100.19;4464049;32;20041;-76
2021/04/05 12:29:06;;;;;;;2.58;0.50;;;;;;;14.93;16.83;101110.88;4464296;32;20069;-76
2021/04/05 12:31:34;;;;;;;3.08;0.50;;;;;;;15.50;17.09;101104.69;4467998;32;20493;-73
2021/04/05 12:34:10;;;;;;;7.12;0.65;;;;;;;16.26;16.47;101104.87;4465342;32;20093;-74
2021/04/05 12:36:37;;;;;;;5.20;0.88;;;;;;;15.25;17.46;101089.84;4467713;32;20064;-74
2021/04/05 12:39:07;;;;;;;1.95;0.50;;;;;;;15.16;17.37;101098.28;4460243;32;20430;-74
2021/04/05 12:41:39;;;;;;;3.53;0.95;;;;;;;14.41;17.74;101116.34;4466139;32;20077;-74
2021/04/05 12:44:10;;;;;;;4.43;0.70;;;;;;;13.90;18.56;101109.13;4465243;32;20521;-75
2021/04/05 12:46:40;;;;;;;1.85;0.30;;;;;;;13.79;18.04;101108.66;4466526;32;20089;-74
2021/04/05 12:49:07;;;;;;;1.37;0.40;;;;;;;14.11;17.71;101110.47;4463700;32;20373;-74
2021/04/05 12:51:35;;;;;;;4.18;0.75;;;;;;;14.01;18.22;101093.38;4435345;32;20067;-74
2021/04/05 12:54:05;;;;;;;3.67;0.80;;;;;;;13.89;18.40;101099.81;4465125;32;20492;-75
2021/04/05 12:56:32;;;;;;;2.55;0.40;;;;;;;14.52;18.11;101096.16;4461591;32;20384;-75
2021/04/05 12:58:58;;;;;;;4.07;0.75;;;;;;;15.30;17.82;101087.19;4464014;32;20144;-75
2021/04/05 13:01:29;;;;;;;3.42;0.70;;;;;;;15.08;17.89;101099.78;4456099;32;20057;-75
2021/04/05 13:03:55;;;;;;;5.00;1.10;;;;;;;14.91;17.62;101115.41;4450155;32;20049;-75
2021/04/05 13:06:23;;;;;;;4.80;0.60;;;;;;;14.76;17.93;101123.59;4449077;32;20355;-75
2021/04/05 13:11:31;;;;;;;2.97;0.57;;;;;;;14.78;18.89;101137.31;3986519;32;15052237;-74
2021/04/05 13:14:04;;;;;;;1.33;0.50;;;;;;;14.78;18.89;101137.31;4440345;32;20017;-73
2021/04/05 13:16:39;;;;;;;4.22;0.70;;;;;;;14.68;18.32;101112.97;4441091;32;20096;-76
2021/04/05 13:19:15;;;;;;;2.05;0.62;;;;;;;15.59;17.67;101124.59;4436822;32;20090;-76
2021/04/05 13:21:43;;;;;;;2.62;0.50;;;;;;;16.73;16.85;101130.09;4438678;32;20098;-77
2021/04/05 13:24:32;;;;;;;2.10;0.50;;;;;;;16.66;16.47;101133.25;4436851;32;20435;-76
2021/04/05 13:27:01;;;;;;;3.08;0.80;;;;;;;15.55;16.94;101121.09;4435201;32;20470;-75
2021/04/05 13:29:32;;;;;;;4.37;0.50;;;;;;;15.97;16.21;101130.00;4436486;32;20447;-74
2021/04/05 13:32:00;;;;;;;2.17;0.57;;;;;;;16.84;15.83;101131.22;4436585;32;20053;-74
2021/04/05 13:34:30;;;;;;;5.18;0.82;;;;;;;17.87;15.39;101131.78;4441676;32;20103;-75
2021/04/05 13:36:58;;;;;;;3.80;0.60;;;;;;;18.19;15.32;101135.16;4440145;32;20405;-74
2021/04/05 13:39:26;;;;;;;4.95;0.65;;;;;;;19.06;14.74;101136.38;4439121;32;20090;-75
2021/04/05 13:42:04;;;;;;;3.97;1.00;;;;;;;18.61;15.35;101150.94;4438182;32;20353;-75
2021/04/05 13:44:33;;;;;;;3.62;0.77;;;;;;;18.79;14.86;101147.16;4437451;32;20065;-75
2021/04/05 13:47:01;;;;;;;3.58;1.10;;;;;;;19.24;14.38;101152.53;4438805;32;20013;-74
2021/04/05 13:49:37;;;;;;;3.80;0.57;;;;;;;19.20;14.73;101149.88;4438838;32;20744;-75
2021/04/05 13:52:03;;;;;;;;;;;;;;;19.02;14.28;101146.38;4438122;32;20099;-75
2021/04/05 13:54:34;;;;;;;2.03;0.80;;;;;;;20.79;13.55;101136.78;4436975;32;20017;-75
2021/04/05 13:57:03;;;;;;;3.10;0.90;;;;;;;21.14;12.83;101126.06;4438079;32;20061;-74
2021/04/05 13:59:31;;;;;;;3.17;0.55;;;;;;;20.66;13.48;101144.91;4439394;32;20033;-75
2021/04/05 14:01:58;;;;;;;2.67;0.65;;;;;;;20.90;13.10;101148.34;4430140;32;20133;-75
2021/04/05 14:04:29;;;;;;;4.55;1.00;;;;;;;20.94;13.38;101145.28;4423013;32;20038;-75
2021/04/05 14:06:58;;;;;;;2.92;0.80;;;;;;;18.85;14.40;101153.78;4423877;32;20070;-75
2021/04/05 14:09:32;;;;;;;2.47;0.75;;;;;;;18.38;15.03;101142.34;4422618;32;20081;-74
2021/04/05 14:12:00;;;;;;;1.33;0.70;;;;;;;17.51;15.23;101140.41;4425385;32;20069;-75
2021/04/05 14:14:30;;;;;;;4.53;1.08;;;;;;;16.77;15.74;101136.41;4424336;32;20103;-75